createdAt,value
2017-08-21T00:00:34.544Z,0
2017-08-21T00:01:33.944Z,0
2017-08-21T00:02:34.241Z,0
2017-08-21T00:03:34.566Z,0
2017-08-21T00:04:34.558Z,0
2017-08-21T00:05:34.566Z,0
2017-08-21T00:06:34.546Z,0
2017-08-21T00:07:33.946Z,0
2017-08-21T00:08:34.259Z,0
2017-08-21T00:09:34.557Z,0
2017-08-21T00:10:33.954Z,0
2017-08-21T00:11:34.240Z,0
2017-08-21T00:12:34.547Z,0
2017-08-21T00:13:34.238Z,0
2017-08-21T00:14:34.545Z,0
2017-08-21T00:15:33.942Z,0
2017-08-21T00:16:33.947Z,0
2017-08-21T00:17:34.543Z,0
2017-08-21T00:18:33.966Z,0
2017-08-21T00:19:34.009Z,0
2017-08-21T00:20:34.543Z,0
2017-08-21T00:21:34.569Z,0
2017-08-21T00:22:34.334Z,0
2017-08-21T00:23:34.544Z,0
2017-08-21T00:24:33.937Z,0
2017-08-21T00:25:34.548Z,0
2017-08-21T00:26:34.537Z,0
2017-08-21T00:27:34.269Z,0
2017-08-21T00:28:35.573Z,0
2017-08-21T00:29:34.546Z,0
2017-08-21T00:30:34.555Z,0
2017-08-21T00:31:34.228Z,0
2017-08-21T00:32:34.535Z,0
2017-08-21T00:33:34.230Z,0
2017-08-21T00:34:34.540Z,0
2017-08-21T00:35:34.525Z,0
2017-08-21T00:36:34.242Z,0
2017-08-21T00:37:33.937Z,0
2017-08-21T00:38:34.532Z,0
2017-08-21T00:39:34.535Z,0
2017-08-21T00:40:34.527Z,0
2017-08-21T00:41:34.528Z,0
2017-08-21T00:42:34.536Z,0
2017-08-21T00:43:38.579Z,0
2017-08-21T00:44:34.526Z,0
2017-08-21T00:45:33.929Z,0
2017-08-21T00:46:34.528Z,0
2017-08-21T00:47:34.214Z,0
2017-08-21T00:48:34.528Z,0
2017-08-21T00:49:34.226Z,0
2017-08-21T00:50:34.523Z,0
2017-08-21T00:51:34.558Z,0
2017-08-21T00:52:34.225Z,0
2017-08-21T00:53:34.533Z,0
2017-08-21T00:54:34.217Z,0
2017-08-21T00:55:34.220Z,0
2017-08-21T00:56:34.225Z,0
2017-08-21T00:57:34.214Z,0
2017-08-21T00:58:37.273Z,0
2017-08-21T00:59:34.526Z,0
2017-08-21T01:00:34.541Z,0
2017-08-21T01:01:34.522Z,0
2017-08-21T01:02:34.518Z,0
2017-08-21T01:03:34.514Z,0
2017-08-21T01:04:34.523Z,0
2017-08-21T01:05:34.216Z,0
2017-08-21T01:06:34.219Z,0
2017-08-21T01:07:34.526Z,0
2017-08-21T01:08:34.213Z,0
2017-08-21T01:09:33.923Z,0
2017-08-21T01:10:33.910Z,0
2017-08-21T01:11:33.909Z,0
2017-08-21T01:12:34.519Z,0
2017-08-21T01:13:34.511Z,0
2017-08-21T01:14:34.518Z,0
2017-08-21T01:15:34.512Z,0
2017-08-21T01:16:34.506Z,0
2017-08-21T01:17:33.605Z,0
2017-08-21T01:18:34.224Z,0
2017-08-21T01:19:34.510Z,0
2017-08-21T01:20:34.219Z,0
2017-08-21T01:21:34.512Z,0
2017-08-21T01:22:34.198Z,0
2017-08-21T01:23:34.506Z,0
2017-08-21T01:24:34.217Z,0
2017-08-21T01:25:34.503Z,0
2017-08-21T01:26:34.222Z,0
2017-08-21T01:27:33.908Z,0
2017-08-21T01:28:34.512Z,0
2017-08-21T01:29:37.309Z,0
2017-08-21T01:30:34.207Z,0
2017-08-21T01:31:34.223Z,0
2017-08-21T01:32:34.200Z,0
2017-08-21T01:33:34.533Z,0
2017-08-21T01:34:34.517Z,0
2017-08-21T01:35:34.505Z,0
2017-08-21T01:36:34.506Z,0
2017-08-21T01:37:34.205Z,0
2017-08-21T01:38:34.496Z,0
2017-08-21T01:39:33.891Z,0
2017-08-21T01:40:34.211Z,0
2017-08-21T01:41:34.198Z,0
2017-08-21T01:42:34.508Z,0
2017-08-21T01:43:34.195Z,0
2017-08-21T01:44:34.254Z,0
2017-08-21T01:45:34.498Z,0
2017-08-21T01:46:34.202Z,0
2017-08-21T01:47:34.496Z,0
2017-08-21T01:48:33.896Z,0
2017-08-21T01:49:34.200Z,0
2017-08-21T01:50:34.501Z,0
2017-08-21T01:51:34.498Z,0
2017-08-21T01:52:34.498Z,0
2017-08-21T01:53:34.493Z,0
2017-08-21T01:54:34.495Z,0
2017-08-21T01:55:33.883Z,0
2017-08-21T01:56:34.489Z,0
2017-08-21T01:57:34.493Z,0
2017-08-21T01:58:34.489Z,0
2017-08-21T01:59:38.556Z,0
2017-08-21T02:00:34.195Z,0
2017-08-21T02:01:34.488Z,0
2017-08-21T02:02:34.199Z,0
2017-08-21T02:03:34.486Z,0
2017-08-21T02:04:34.483Z,0
2017-08-21T02:05:34.211Z,0
2017-08-21T02:06:34.490Z,0
2017-08-21T02:07:34.485Z,0
2017-08-21T02:08:34.499Z,0
2017-08-21T02:09:34.203Z,0
2017-08-21T02:10:34.202Z,0
2017-08-21T02:11:33.894Z,0
2017-08-21T02:12:34.195Z,0
2017-08-21T02:13:33.904Z,0
2017-08-21T02:14:34.193Z,0
2017-08-21T02:15:34.488Z,0
2017-08-21T02:16:34.487Z,0
2017-08-21T02:17:34.490Z,0
2017-08-21T02:18:34.492Z,0
2017-08-21T02:19:34.487Z,0
2017-08-21T02:20:34.190Z,0
2017-08-21T02:21:34.488Z,0
2017-08-21T02:22:34.182Z,0
2017-08-21T02:23:34.484Z,0
2017-08-21T02:24:34.487Z,0
2017-08-21T02:25:33.898Z,0
2017-08-21T02:26:34.188Z,0
2017-08-21T02:27:34.498Z,0
2017-08-21T02:28:33.903Z,0
2017-08-21T02:29:35.041Z,0
2017-08-21T02:30:34.209Z,0
2017-08-21T02:31:34.209Z,0
2017-08-21T02:32:34.203Z,0
2017-08-21T02:33:34.214Z,0
2017-08-21T02:34:34.214Z,0
2017-08-21T02:35:34.209Z,0
2017-08-21T02:36:34.200Z,0
2017-08-21T02:37:34.498Z,0
2017-08-21T02:38:33.915Z,0
2017-08-21T02:39:33.611Z,0
2017-08-21T02:40:34.507Z,0
2017-08-21T02:41:34.197Z,0
2017-08-21T02:42:33.590Z,0
2017-08-21T02:43:34.514Z,0
2017-08-21T02:44:34.209Z,0
2017-08-21T02:45:34.198Z,0
2017-08-21T02:46:34.217Z,0
2017-08-21T02:47:34.199Z,0
2017-08-21T02:48:33.895Z,0
2017-08-21T02:49:34.198Z,0
2017-08-21T02:50:33.604Z,0
2017-08-21T02:51:33.886Z,0
2017-08-21T02:52:34.182Z,0
2017-08-21T02:53:34.485Z,0
2017-08-21T02:54:34.478Z,0
2017-08-21T02:55:34.176Z,0
2017-08-21T02:56:33.894Z,0
2017-08-21T02:57:34.169Z,0
2017-08-21T02:58:34.171Z,0
2017-08-21T02:59:34.321Z,0
2017-08-21T03:00:36.506Z,0
2017-08-21T03:01:34.464Z,0
2017-08-21T03:02:34.466Z,0
2017-08-21T03:03:34.463Z,0
2017-08-21T03:04:34.494Z,0
2017-08-21T03:05:34.471Z,0
2017-08-21T03:06:34.471Z,0
2017-08-21T03:07:33.869Z,0
2017-08-21T03:08:34.465Z,0
2017-08-21T03:09:34.468Z,0
2017-08-21T03:10:34.465Z,0
2017-08-21T03:11:34.482Z,0
2017-08-21T03:12:34.468Z,0
2017-08-21T03:13:34.152Z,0
2017-08-21T03:14:34.159Z,0
2017-08-21T03:15:34.154Z,0
2017-08-21T03:16:34.470Z,0
2017-08-21T03:17:33.892Z,0
2017-08-21T03:18:34.458Z,0
2017-08-21T03:19:34.461Z,0
2017-08-21T03:20:34.158Z,0
2017-08-21T03:21:34.470Z,0
2017-08-21T03:22:34.140Z,0
2017-08-21T03:23:34.466Z,0
2017-08-21T03:24:34.163Z,0
2017-08-21T03:25:34.489Z,0
2017-08-21T03:26:34.487Z,0
2017-08-21T03:27:34.134Z,0
2017-08-21T03:28:34.437Z,0
2017-08-21T03:29:34.462Z,0
2017-08-21T03:30:38.360Z,0
2017-08-21T03:31:34.431Z,0
2017-08-21T03:32:34.429Z,0
2017-08-21T03:33:33.828Z,0
2017-08-21T03:34:34.430Z,0
2017-08-21T03:35:34.427Z,0
2017-08-21T03:36:34.125Z,0
2017-08-21T03:37:34.155Z,0
2017-08-21T03:38:33.842Z,0
2017-08-21T03:39:34.420Z,0
2017-08-21T03:40:34.133Z,0
2017-08-21T03:41:34.117Z,0
2017-08-21T03:42:34.114Z,0
2017-08-21T03:43:34.434Z,0
2017-08-21T03:44:33.809Z,0
2017-08-21T03:45:34.425Z,0
2017-08-21T03:46:34.123Z,0
2017-08-21T03:47:34.422Z,0
2017-08-21T03:48:34.428Z,0
2017-08-21T03:49:34.415Z,0
2017-08-21T03:50:34.425Z,0
2017-08-21T03:51:34.423Z,0
2017-08-21T03:52:34.426Z,0
2017-08-21T03:53:34.413Z,0
2017-08-21T03:54:34.115Z,0
2017-08-21T03:55:35.223Z,0
2017-08-21T03:56:34.107Z,0
2017-08-21T03:57:34.428Z,0
2017-08-21T03:58:34.416Z,0
2017-08-21T03:59:34.865Z,0
2017-08-21T04:00:34.108Z,0
2017-08-21T04:01:37.905Z,0
2017-08-21T04:02:34.461Z,0
2017-08-21T04:03:34.462Z,0
2017-08-21T04:04:34.416Z,0
2017-08-21T04:05:34.406Z,0
2017-08-21T04:06:34.421Z,0
2017-08-21T04:07:34.402Z,0
2017-08-21T04:08:34.420Z,0
2017-08-21T04:09:34.234Z,0
2017-08-21T04:10:34.423Z,0
2017-08-21T04:11:34.103Z,0
2017-08-21T04:12:34.408Z,0
2017-08-21T04:13:33.798Z,0
2017-08-21T04:14:34.416Z,0
2017-08-21T04:15:34.422Z,0
2017-08-21T04:16:35.896Z,0
2017-08-21T04:17:34.422Z,0
2017-08-21T04:18:33.787Z,0
2017-08-21T04:19:34.121Z,0
2017-08-21T04:20:34.410Z,0
2017-08-21T04:21:33.781Z,0
2017-08-21T04:22:34.427Z,0
2017-08-21T04:23:33.783Z,0
2017-08-21T04:24:34.384Z,0
2017-08-21T04:25:34.087Z,0
2017-08-21T04:26:34.092Z,0
2017-08-21T04:27:34.089Z,0
2017-08-21T04:28:34.386Z,0
2017-08-21T04:29:34.391Z,0
2017-08-21T04:30:34.388Z,5
2017-08-21T04:31:35.392Z,5
2017-08-21T04:32:33.859Z,5
2017-08-21T04:33:34.075Z,5
2017-08-21T04:34:34.388Z,5
2017-08-21T04:35:34.076Z,5
2017-08-21T04:36:34.376Z,5
2017-08-21T04:37:34.370Z,5
2017-08-21T04:38:34.375Z,5
2017-08-21T04:39:34.380Z,5
2017-08-21T04:40:34.071Z,5
2017-08-21T04:41:34.474Z,10
2017-08-21T04:42:34.376Z,10
2017-08-21T04:43:34.372Z,10
2017-08-21T04:44:34.368Z,10
2017-08-21T04:45:34.369Z,10
2017-08-21T04:46:34.366Z,10
2017-08-21T04:47:34.381Z,10
2017-08-21T04:48:34.372Z,10
2017-08-21T04:49:34.070Z,15
2017-08-21T04:50:33.769Z,15
2017-08-21T04:51:34.061Z,15
2017-08-21T04:52:34.373Z,15
2017-08-21T04:53:34.367Z,20
2017-08-21T04:54:34.366Z,20
2017-08-21T04:55:34.052Z,20
2017-08-21T04:56:34.056Z,25
2017-08-21T04:57:34.372Z,25
2017-08-21T04:58:34.068Z,25
2017-08-21T04:59:34.364Z,30
2017-08-21T05:00:34.056Z,30
2017-08-21T05:01:35.607Z,30
2017-08-21T05:02:33.760Z,30
2017-08-21T05:03:34.053Z,35
2017-08-21T05:04:34.043Z,35
2017-08-21T05:05:34.360Z,35
2017-08-21T05:06:34.361Z,40
2017-08-21T05:07:34.347Z,40
2017-08-21T05:08:34.348Z,40
2017-08-21T05:09:34.339Z,45
2017-08-21T05:10:34.371Z,45
2017-08-21T05:11:34.054Z,50
2017-08-21T05:12:33.779Z,50
2017-08-21T05:13:34.070Z,55
2017-08-21T05:14:34.344Z,55
2017-08-21T05:15:34.338Z,55
2017-08-21T05:16:34.045Z,55
2017-08-21T05:17:34.031Z,55
2017-08-21T05:18:34.391Z,55
2017-08-21T05:19:34.337Z,55
2017-08-21T05:20:34.044Z,55
2017-08-21T05:21:34.038Z,60
2017-08-21T05:22:34.042Z,60
2017-08-21T05:23:34.340Z,60
2017-08-21T05:24:34.336Z,60
2017-08-21T05:25:34.039Z,60
2017-08-21T05:26:34.039Z,60
2017-08-21T05:27:34.039Z,65
2017-08-21T05:28:34.331Z,70
2017-08-21T05:29:34.340Z,75
2017-08-21T05:30:34.353Z,80
2017-08-21T05:31:34.028Z,80
2017-08-21T05:32:37.571Z,85
2017-08-21T05:33:34.055Z,85
2017-08-21T05:34:34.332Z,85
2017-08-21T05:35:33.434Z,85
2017-08-21T05:36:34.036Z,90
2017-08-21T05:37:34.351Z,90
2017-08-21T05:38:34.338Z,95
2017-08-21T05:39:34.334Z,95
2017-08-21T05:40:34.338Z,95
2017-08-21T05:41:34.032Z,95
2017-08-21T05:42:34.030Z,100
2017-08-21T05:43:34.024Z,100
2017-08-21T05:44:34.027Z,100
2017-08-21T05:45:34.028Z,100
2017-08-21T05:46:34.064Z,100
2017-08-21T05:47:34.023Z,100
2017-08-21T05:48:34.336Z,100
2017-08-21T05:49:34.336Z,100
2017-08-21T05:50:33.736Z,95
2017-08-21T05:51:34.104Z,95
2017-08-21T05:52:34.336Z,95
2017-08-21T05:53:34.029Z,95
2017-08-21T05:54:34.325Z,95
2017-08-21T05:55:34.358Z,95
2017-08-21T05:56:34.029Z,95
2017-08-21T05:57:34.412Z,95
2017-08-21T05:58:34.037Z,95
2017-08-21T05:59:34.050Z,95
2017-08-21T06:00:34.029Z,95
2017-08-21T06:01:34.338Z,95
2017-08-21T06:02:39.437Z,95
2017-08-21T06:03:34.345Z,90
2017-08-21T06:04:34.324Z,90
2017-08-21T06:05:34.326Z,90
2017-08-21T06:06:34.024Z,90
2017-08-21T06:07:34.340Z,90
2017-08-21T06:08:34.043Z,90
2017-08-21T06:09:34.350Z,90
2017-08-21T06:10:34.033Z,95
2017-08-21T06:11:34.030Z,100
2017-08-21T06:12:34.330Z,100
2017-08-21T06:13:34.338Z,105
2017-08-21T06:14:34.052Z,105
2017-08-21T06:15:34.027Z,100
2017-08-21T06:16:34.333Z,100
2017-08-21T06:17:34.326Z,95
2017-08-21T06:18:34.329Z,95
2017-08-21T06:19:34.032Z,95
2017-08-21T06:20:34.328Z,95
2017-08-21T06:21:34.338Z,95
2017-08-21T06:22:34.333Z,95
2017-08-21T06:23:34.030Z,100
2017-08-21T06:24:34.338Z,100
2017-08-21T06:25:34.330Z,100
2017-08-21T06:26:34.352Z,105
2017-08-21T06:27:34.332Z,105
2017-08-21T06:28:34.043Z,105
2017-08-21T06:29:34.027Z,110
2017-08-21T06:30:34.033Z,110
2017-08-21T06:31:34.338Z,115
2017-08-21T06:32:36.391Z,120
2017-08-21T06:33:34.036Z,125
2017-08-21T06:34:34.054Z,125
2017-08-21T06:35:34.336Z,130
2017-08-21T06:36:34.339Z,135
2017-08-21T06:37:34.036Z,140
2017-08-21T06:38:34.030Z,145
2017-08-21T06:39:34.034Z,150
2017-08-21T06:40:34.042Z,150
2017-08-21T06:41:34.038Z,155
2017-08-21T06:42:34.346Z,155
2017-08-21T06:43:34.338Z,155
2017-08-21T06:44:34.352Z,155
2017-08-21T06:45:34.341Z,150
2017-08-21T06:46:34.358Z,150
2017-08-21T06:47:33.748Z,150
2017-08-21T06:48:34.341Z,150
2017-08-21T06:49:34.342Z,150
2017-08-21T06:50:34.039Z,155
2017-08-21T06:51:34.048Z,155
2017-08-21T06:52:34.349Z,160
2017-08-21T06:53:35.166Z,165
2017-08-21T06:54:33.756Z,170
2017-08-21T06:55:34.362Z,170
2017-08-21T06:56:34.056Z,175
2017-08-21T06:57:34.347Z,185
2017-08-21T06:58:34.053Z,190
2017-08-21T06:59:34.366Z,190
2017-08-21T07:00:34.052Z,190
2017-08-21T07:01:34.353Z,190
2017-08-21T07:02:34.366Z,185
2017-08-21T07:03:38.368Z,185
2017-08-21T07:04:34.098Z,180
2017-08-21T07:05:34.058Z,180
2017-08-21T07:06:34.373Z,180
2017-08-21T07:07:34.368Z,175
2017-08-21T07:08:34.371Z,175
2017-08-21T07:09:34.370Z,175
2017-08-21T07:10:34.368Z,180
2017-08-21T07:11:34.370Z,190
2017-08-21T07:12:34.080Z,195
2017-08-21T07:13:34.379Z,195
2017-08-21T07:14:34.071Z,205
2017-08-21T07:15:34.397Z,210
2017-08-21T07:16:33.778Z,215
2017-08-21T07:17:34.421Z,215
2017-08-21T07:18:34.379Z,220
2017-08-21T07:19:34.398Z,225
2017-08-21T07:20:34.389Z,230
2017-08-21T07:21:34.088Z,235
2017-08-21T07:22:34.385Z,240
2017-08-21T07:23:34.403Z,250
2017-08-21T07:24:34.093Z,245
2017-08-21T07:25:34.089Z,240
2017-08-21T07:26:34.094Z,235
2017-08-21T07:27:34.435Z,230
2017-08-21T07:28:34.423Z,225
2017-08-21T07:29:34.102Z,230
2017-08-21T07:30:34.424Z,230
2017-08-21T07:31:34.107Z,235
2017-08-21T07:32:34.133Z,240
2017-08-21T07:33:37.362Z,245
2017-08-21T07:34:34.136Z,245
2017-08-21T07:35:34.438Z,250
2017-08-21T07:36:34.436Z,245
2017-08-21T07:37:34.132Z,255
2017-08-21T07:38:34.137Z,250
2017-08-21T07:39:34.442Z,245
2017-08-21T07:40:34.144Z,255
2017-08-21T07:41:33.839Z,250
2017-08-21T07:42:34.140Z,250
2017-08-21T07:43:33.545Z,245
2017-08-21T07:44:34.140Z,245
2017-08-21T07:45:34.454Z,245
2017-08-21T07:46:34.465Z,250
2017-08-21T07:47:34.150Z,250
2017-08-21T07:48:33.857Z,255
2017-08-21T07:49:34.651Z,255
2017-08-21T07:50:34.166Z,255
2017-08-21T07:51:34.476Z,260
2017-08-21T07:52:34.465Z,260
2017-08-21T07:53:34.474Z,265
2017-08-21T07:54:34.477Z,270
2017-08-21T07:55:34.491Z,290
2017-08-21T07:56:34.493Z,285
2017-08-21T07:57:34.499Z,275
2017-08-21T07:58:34.520Z,280
2017-08-21T07:59:34.497Z,280
2017-08-21T08:00:34.506Z,285
2017-08-21T08:01:34.207Z,285
2017-08-21T08:02:34.506Z,290
2017-08-21T08:03:33.895Z,295
2017-08-21T08:04:38.258Z,285
2017-08-21T08:05:34.214Z,290
2017-08-21T08:06:34.528Z,285
2017-08-21T08:07:34.519Z,285
2017-08-21T08:08:34.525Z,280
2017-08-21T08:09:34.215Z,285
2017-08-21T08:10:34.533Z,285
2017-08-21T08:11:34.531Z,280
2017-08-21T08:12:34.246Z,280
2017-08-21T08:13:34.547Z,290
2017-08-21T08:14:33.942Z,290
2017-08-21T08:15:34.247Z,300
2017-08-21T08:16:34.542Z,295
2017-08-21T08:17:34.553Z,295
2017-08-21T08:18:34.272Z,295
2017-08-21T08:19:34.560Z,300
2017-08-21T08:20:34.587Z,295
2017-08-21T08:21:33.967Z,305
2017-08-21T08:22:33.967Z,295
2017-08-21T08:23:34.283Z,300
2017-08-21T08:24:34.592Z,295
2017-08-21T08:25:34.299Z,295
2017-08-21T08:26:34.603Z,295
2017-08-21T08:27:34.606Z,305
2017-08-21T08:28:34.315Z,285
2017-08-21T08:29:34.299Z,305
2017-08-21T08:30:34.319Z,295
2017-08-21T08:31:34.312Z,300
2017-08-21T08:32:34.618Z,290
2017-08-21T08:33:34.627Z,310
2017-08-21T08:34:38.336Z,335
2017-08-21T08:35:34.636Z,400
2017-08-21T08:36:34.334Z,315
2017-08-21T08:37:34.643Z,340
2017-08-21T08:38:34.648Z,360
2017-08-21T08:39:34.345Z,360
2017-08-21T08:40:34.655Z,385
2017-08-21T08:41:34.387Z,275
2017-08-21T08:42:34.657Z,315
2017-08-21T08:43:34.368Z,290
2017-08-21T08:44:34.368Z,295
2017-08-21T08:45:34.384Z,290
2017-08-21T08:46:34.681Z,360
2017-08-21T08:47:34.391Z,255
2017-08-21T08:48:34.691Z,335
2017-08-21T08:49:34.399Z,330
2017-08-21T08:50:34.124Z,260
2017-08-21T08:51:34.098Z,265
2017-08-21T08:52:34.713Z,295
2017-08-21T08:53:34.416Z,335
2017-08-21T08:54:34.431Z,320
2017-08-21T08:55:34.726Z,315
2017-08-21T08:56:34.738Z,305
2017-08-21T08:57:34.734Z,310
2017-08-21T08:58:34.150Z,285
2017-08-21T08:59:34.741Z,295
2017-08-21T09:00:34.480Z,265
2017-08-21T09:01:34.500Z,260
2017-08-21T09:02:34.154Z,270
2017-08-21T09:03:34.496Z,275
2017-08-21T09:04:34.759Z,285
2017-08-21T09:05:34.785Z,300
2017-08-21T09:06:34.185Z,285
2017-08-21T09:07:34.482Z,270
2017-08-21T09:08:34.484Z,285
2017-08-21T09:09:34.786Z,280
2017-08-21T09:10:34.200Z,265
2017-08-21T09:11:34.225Z,275
2017-08-21T09:12:34.200Z,270
2017-08-21T09:13:34.503Z,275
2017-08-21T09:14:34.531Z,260
2017-08-21T09:15:34.542Z,310
2017-08-21T09:16:34.514Z,320
2017-08-21T09:17:34.538Z,320
2017-08-21T09:18:34.825Z,310
2017-08-21T09:19:34.540Z,300
2017-08-21T09:20:34.745Z,315
2017-08-21T09:21:34.238Z,320
2017-08-21T09:22:33.948Z,310
2017-08-21T09:23:34.851Z,315
2017-08-21T09:24:34.854Z,315
2017-08-21T09:25:34.854Z,310
2017-08-21T09:26:34.564Z,310
2017-08-21T09:27:34.871Z,315
2017-08-21T09:28:34.871Z,315
2017-08-21T09:29:34.267Z,315
2017-08-21T09:30:34.888Z,310
2017-08-21T09:31:34.881Z,315
2017-08-21T09:32:34.887Z,310
2017-08-21T09:33:34.891Z,315
2017-08-21T09:34:34.901Z,315
2017-08-21T09:35:35.851Z,315
2017-08-21T09:36:34.901Z,315
2017-08-21T09:37:34.597Z,310
2017-08-21T09:38:34.901Z,310
2017-08-21T09:39:34.914Z,310
2017-08-21T09:40:34.608Z,305
2017-08-21T09:41:34.631Z,305
2017-08-21T09:42:34.626Z,305
2017-08-21T09:43:34.628Z,305
2017-08-21T09:44:34.634Z,305
2017-08-21T09:45:35.000Z,305
2017-08-21T09:46:34.323Z,305
2017-08-21T09:47:34.644Z,305
2017-08-21T09:48:34.632Z,300
2017-08-21T09:49:34.953Z,300
2017-08-21T09:50:34.640Z,300
2017-08-21T09:51:34.652Z,300
2017-08-21T09:52:34.653Z,300
2017-08-21T09:53:34.659Z,295
2017-08-21T09:54:34.368Z,295
2017-08-21T09:55:35.463Z,300
2017-08-21T09:56:34.383Z,295
2017-08-21T09:57:34.971Z,295
2017-08-21T09:58:34.366Z,290
2017-08-21T09:59:34.663Z,290
2017-08-21T10:00:34.983Z,295
2017-08-21T10:01:34.388Z,295
2017-08-21T10:02:34.387Z,290
2017-08-21T10:03:34.078Z,290
2017-08-21T10:04:34.095Z,285
2017-08-21T10:05:37.843Z,295
2017-08-21T10:06:34.695Z,285
2017-08-21T10:07:34.689Z,280
2017-08-21T10:08:34.098Z,280
2017-08-21T10:09:34.708Z,275
2017-08-21T10:10:35.017Z,280
2017-08-21T10:11:34.709Z,275
2017-08-21T10:12:34.719Z,285
2017-08-21T10:13:34.718Z,285
2017-08-21T10:14:34.720Z,285
2017-08-21T10:15:34.434Z,280
2017-08-21T10:16:35.032Z,280
2017-08-21T10:17:35.044Z,285
2017-08-21T10:18:35.049Z,280
2017-08-21T10:19:34.453Z,280
2017-08-21T10:20:34.764Z,280
2017-08-21T10:21:34.458Z,280
2017-08-21T10:22:34.769Z,275
2017-08-21T10:23:35.070Z,275
2017-08-21T10:24:34.771Z,280
2017-08-21T10:25:34.765Z,280
2017-08-21T10:26:34.774Z,285
2017-08-21T10:27:34.473Z,280
2017-08-21T10:28:34.775Z,280
2017-08-21T10:29:34.780Z,280
2017-08-21T10:30:34.780Z,280
2017-08-21T10:31:35.084Z,280
2017-08-21T10:32:34.789Z,280
2017-08-21T10:33:34.790Z,280
2017-08-21T10:34:34.798Z,285
2017-08-21T10:35:34.506Z,285
2017-08-21T10:36:35.575Z,285
2017-08-21T10:37:35.115Z,290
2017-08-21T10:38:34.818Z,285
2017-08-21T10:39:35.126Z,290
2017-08-21T10:40:35.124Z,290
2017-08-21T10:41:34.525Z,290
2017-08-21T10:42:34.572Z,295
2017-08-21T10:43:35.130Z,295
2017-08-21T10:44:34.833Z,295
2017-08-21T10:45:34.837Z,295
2017-08-21T10:46:34.837Z,295
2017-08-21T10:47:35.145Z,295
2017-08-21T10:48:35.149Z,300
2017-08-21T10:49:35.151Z,300
2017-08-21T10:50:34.869Z,300
2017-08-21T10:51:35.178Z,305
2017-08-21T10:52:34.875Z,310
2017-08-21T10:53:34.880Z,315
2017-08-21T10:54:34.875Z,315
2017-08-21T10:55:34.882Z,320
2017-08-21T10:56:34.892Z,320
2017-08-21T10:57:34.599Z,315
2017-08-21T10:58:35.190Z,315
2017-08-21T10:59:34.606Z,315
2017-08-21T11:00:34.603Z,315
2017-08-21T11:01:34.903Z,315
2017-08-21T11:02:34.605Z,325
2017-08-21T11:03:35.234Z,320
2017-08-21T11:04:35.214Z,315
2017-08-21T11:05:34.914Z,315
2017-08-21T11:06:36.026Z,320
2017-08-21T11:07:35.235Z,300
2017-08-21T11:08:35.242Z,260
2017-08-21T11:09:35.259Z,260
2017-08-21T11:10:35.275Z,260
2017-08-21T11:11:35.257Z,265
2017-08-21T11:12:35.258Z,270
2017-08-21T11:13:35.272Z,275
2017-08-21T11:14:35.269Z,330
2017-08-21T11:15:34.670Z,305
2017-08-21T11:16:35.275Z,285
2017-08-21T11:17:35.284Z,305
2017-08-21T11:18:34.995Z,280
2017-08-21T11:19:35.307Z,290
2017-08-21T11:20:34.685Z,265
2017-08-21T11:21:35.785Z,250
2017-08-21T11:22:34.990Z,245
2017-08-21T11:23:34.995Z,235
2017-08-21T11:24:35.298Z,225
2017-08-21T11:25:35.007Z,230
2017-08-21T11:26:35.008Z,225
2017-08-21T11:27:34.420Z,275
2017-08-21T11:28:35.328Z,275
2017-08-21T11:29:35.345Z,275
2017-08-21T11:30:35.347Z,280
2017-08-21T11:31:35.336Z,280
2017-08-21T11:32:35.346Z,275
2017-08-21T11:33:35.353Z,280
2017-08-21T11:34:35.047Z,275
2017-08-21T11:35:35.043Z,275
2017-08-21T11:36:35.506Z,275
2017-08-21T11:37:35.356Z,270
2017-08-21T11:38:35.356Z,270
2017-08-21T11:39:35.366Z,270
2017-08-21T11:40:35.368Z,270
2017-08-21T11:41:35.074Z,270
2017-08-21T11:42:34.474Z,265
2017-08-21T11:43:35.086Z,250
2017-08-21T11:44:34.787Z,260
2017-08-21T11:45:34.496Z,260
2017-08-21T11:46:35.095Z,220
2017-08-21T11:47:35.116Z,215
2017-08-21T11:48:35.404Z,215
2017-08-21T11:49:35.440Z,250
2017-08-21T11:50:35.403Z,240
2017-08-21T11:51:35.215Z,240
2017-08-21T11:52:35.419Z,270
2017-08-21T11:53:35.438Z,270
2017-08-21T11:54:35.139Z,275
2017-08-21T11:55:35.125Z,275
2017-08-21T11:56:35.144Z,280
2017-08-21T11:57:34.542Z,280
2017-08-21T11:58:35.142Z,280
2017-08-21T11:59:35.143Z,275
2017-08-21T12:00:35.151Z,280
2017-08-21T12:01:35.154Z,285
2017-08-21T12:02:34.866Z,285
2017-08-21T12:03:35.512Z,290
2017-08-21T12:04:35.182Z,290
2017-08-21T12:05:35.166Z,295
2017-08-21T12:06:40.727Z,295
2017-08-21T12:07:35.496Z,295
2017-08-21T12:08:34.920Z,295
2017-08-21T12:09:35.185Z,295
2017-08-21T12:10:35.204Z,295
2017-08-21T12:11:35.194Z,290
2017-08-21T12:12:35.247Z,290
2017-08-21T12:13:35.522Z,300
2017-08-21T12:14:35.216Z,295
2017-08-21T12:15:34.925Z,300
2017-08-21T12:16:35.228Z,300
2017-08-21T12:17:35.531Z,300
2017-08-21T12:18:35.232Z,300
2017-08-21T12:19:35.234Z,300
2017-08-21T12:20:35.544Z,300
2017-08-21T12:21:35.542Z,300
2017-08-21T12:22:35.548Z,305
2017-08-21T12:23:35.551Z,300
2017-08-21T12:24:35.565Z,300
2017-08-21T12:25:35.557Z,295
2017-08-21T12:26:35.573Z,305
2017-08-21T12:27:34.971Z,300
2017-08-21T12:28:34.973Z,300
2017-08-21T12:29:35.280Z,295
2017-08-21T12:30:35.297Z,295
2017-08-21T12:31:35.293Z,295
2017-08-21T12:32:34.995Z,295
2017-08-21T12:33:34.996Z,290
2017-08-21T12:34:35.601Z,285
2017-08-21T12:35:35.309Z,285
2017-08-21T12:36:35.340Z,285
2017-08-21T12:37:36.925Z,285
2017-08-21T12:38:35.031Z,285
2017-08-21T12:39:35.644Z,280
2017-08-21T12:40:35.630Z,280
2017-08-21T12:41:35.340Z,280
2017-08-21T12:42:35.364Z,280
2017-08-21T12:43:35.360Z,280
2017-08-21T12:44:35.357Z,275
2017-08-21T12:45:35.369Z,280
2017-08-21T12:46:35.068Z,280
2017-08-21T12:47:35.670Z,275
2017-08-21T12:48:35.675Z,270
2017-08-21T12:49:35.684Z,275
2017-08-21T12:50:35.083Z,270
2017-08-21T12:51:35.709Z,275
2017-08-21T12:52:35.699Z,280
2017-08-21T12:53:35.115Z,285
2017-08-21T12:54:35.404Z,290
2017-08-21T12:55:35.153Z,290
2017-08-21T12:56:35.430Z,285
2017-08-21T12:57:35.459Z,285
2017-08-21T12:58:35.750Z,285
2017-08-21T12:59:35.747Z,270
2017-08-21T13:00:35.159Z,255
2017-08-21T13:01:35.740Z,275
2017-08-21T13:02:35.141Z,275
2017-08-21T13:03:35.460Z,275
2017-08-21T13:04:35.464Z,280
2017-08-21T13:05:35.199Z,285
2017-08-21T13:06:35.172Z,290
2017-08-21T13:07:39.778Z,285
2017-08-21T13:08:35.467Z,285
2017-08-21T13:09:35.118Z,285
2017-08-21T13:10:35.192Z,285
2017-08-21T13:11:35.840Z,285
2017-08-21T13:12:35.938Z,280
2017-08-21T13:13:35.221Z,280
2017-08-21T13:14:35.799Z,280
2017-08-21T13:15:34.974Z,285
2017-08-21T13:16:35.514Z,285
2017-08-21T13:17:35.308Z,280
2017-08-21T13:18:34.910Z,275
2017-08-21T13:19:35.631Z,265
2017-08-21T13:20:35.250Z,275
2017-08-21T13:21:35.587Z,275
2017-08-21T13:22:35.382Z,275
2017-08-21T13:23:35.860Z,275
2017-08-21T13:24:35.854Z,270
2017-08-21T13:25:35.858Z,265
2017-08-21T13:26:35.857Z,265
2017-08-21T13:27:35.951Z,265
2017-08-21T13:28:35.974Z,265
2017-08-21T13:29:34.972Z,265
2017-08-21T13:30:35.883Z,265
2017-08-21T13:31:35.887Z,260
2017-08-21T13:32:35.904Z,265
2017-08-21T13:33:35.970Z,255
2017-08-21T13:34:35.952Z,255
2017-08-21T13:35:35.661Z,240
2017-08-21T13:36:35.945Z,245
2017-08-21T13:37:35.318Z,250
2017-08-21T13:38:37.108Z,240
2017-08-21T13:39:35.911Z,250
2017-08-21T13:40:35.713Z,260
2017-08-21T13:41:35.731Z,245
2017-08-21T13:42:35.707Z,245
2017-08-21T13:43:34.718Z,245
2017-08-21T13:44:35.512Z,240
2017-08-21T13:45:35.685Z,240
2017-08-21T13:46:35.745Z,240
2017-08-21T13:47:35.671Z,240
2017-08-21T13:48:36.142Z,240
2017-08-21T13:49:35.081Z,235
2017-08-21T13:50:35.175Z,230
2017-08-21T13:51:35.675Z,240
2017-08-21T13:52:35.738Z,250
2017-08-21T13:53:36.924Z,250
2017-08-21T13:54:35.690Z,245
2017-08-21T13:55:35.761Z,260
2017-08-21T13:56:35.382Z,245
2017-08-21T13:57:35.084Z,255
2017-08-21T13:58:35.411Z,250
2017-08-21T13:59:35.696Z,230
2017-08-21T14:00:35.466Z,250
2017-08-21T14:01:35.769Z,255
2017-08-21T14:02:35.714Z,255
2017-08-21T14:03:36.029Z,255
2017-08-21T14:04:35.726Z,260
2017-08-21T14:05:35.834Z,260
2017-08-21T14:06:36.047Z,260
2017-08-21T14:07:36.081Z,260
2017-08-21T14:08:36.857Z,255